Time;durP1;ratioP1;P1;durP2;ratioP2;P2;SDS_P1;SDS_P2;PMS_P1;PMS_P2;Temp;Humidity;BMP_temperature;BMP_pressure;BME280_temperature;BME280_humidity;BME280_pressure;Samples;Min_cycle;Max_cycle;Signal;HPM_P1;HPM_P2
2021/03/07 00:02:20;;;;;;;18.80;10.18;;;-3.00;88.50;;;;;;5092516;28;20017;-85
2021/03/07 00:04:46;;;;;;;18.92;9.95;;;-3.00;88.40;;;;;;5092456;28;20528;-85
2021/03/07 00:07:12;;;;;;;16.45;9.70;;;-3.00;88.40;;;;;;5076667;28;20031;-85
2021/03/07 00:09:37;;;;;;;15.63;8.95;;;-3.00;88.40;;;;;;5092279;28;20056;-86
2021/03/07 00:12:03;;;;;;;14.98;8.95;;;-3.00;88.70;;;;;;5092092;28;20048;-85
2021/03/07 00:14:29;;;;;;;18.05;10.60;;;-3.10;88.60;;;;;;5075609;28;20491;-85
2021/03/07 00:16:55;;;;;;;16.38;9.68;;;-3.10;88.70;;;;;;5092464;28;20534;-85
2021/03/07 00:19:20;;;;;;;16.73;8.77;;;-3.10;88.60;;;;;;5092276;28;20027;-85
2021/03/07 00:21:46;;;;;;;15.98;8.73;;;-3.10;88.70;;;;;;5092104;28;20035;-85
2021/03/07 00:24:12;;;;;;;21.67;10.48;;;-3.10;88.80;;;;;;5076313;28;20471;-85
2021/03/07 00:26:37;;;;;;;19.73;10.80;;;-3.10;88.70;;;;;;5075266;28;20024;-85
2021/03/07 00:29:05;;;;;;;15.73;9.63;;;-3.10;88.70;;;;;;5075016;28;20029;-85
2021/03/07 00:31:30;;;;;;;20.00;10.00;;;-3.10;88.60;;;;;;5076314;28;20033;-85
2021/03/07 00:33:56;;;;;;;20.10;10.10;;;-3.20;88.50;;;;;;5076369;28;20078;-85
2021/03/07 00:36:22;;;;;;;22.80;11.88;;;-3.20;88.60;;;;;;5091299;28;20020;-85
2021/03/07 00:38:47;;;;;;;19.15;10.27;;;-3.20;88.70;;;;;;5074086;28;20085;-85
2021/03/07 00:41:13;;;;;;;17.42;9.88;;;-3.20;88.70;;;;;;5074572;28;20024;-85
2021/03/07 00:43:39;;;;;;;17.98;9.75;;;-3.20;88.70;;;;;;5089568;28;20082;-85
2021/03/07 00:46:06;;;;;;;17.88;9.32;;;-3.30;88.50;;;;;;5074126;28;20028;-85
2021/03/07 00:48:32;;;;;;;16.20;8.38;;;-3.30;88.60;;;;;;5089634;28;20479;-85
2021/03/07 00:50:58;;;;;;;19.42;8.75;;;-3.30;88.60;;;;;;5074011;28;20031;-85
2021/03/07 00:53:23;;;;;;;19.60;10.57;;;-3.30;88.60;;;;;;5089442;28;20032;-85
2021/03/07 00:55:49;;;;;;;18.65;10.50;;;-3.40;88.60;;;;;;5073043;28;20031;-85
2021/03/07 00:58:15;;;;;;;21.58;10.88;;;-3.40;88.90;;;;;;5072572;28;20031;-85
2021/03/07 01:00:41;;;;;;;20.35;10.65;;;-3.40;88.80;;;;;;5089505;28;20021;-85
2021/03/07 01:03:07;;;;;;;19.85;10.25;;;-3.40;88.70;;;;;;5089443;28;20017;-84
2021/03/07 01:05:33;;;;;;;21.95;10.93;;;-3.40;88.80;;;;;;5089597;28;20042;-85
2021/03/07 01:07:58;;;;;;;19.25;9.77;;;-3.40;88.80;;;;;;5089471;28;20024;-85
2021/03/07 01:10:32;;;;;;;18.08;10.57;;;-3.50;88.80;;;;;;5091857;28;20021;-85
2021/03/07 01:12:58;;;;;;;19.17;10.90;;;-3.50;88.80;;;;;;5073411;28;20040;-85
2021/03/07 01:15:28;;;;;;;19.30;10.18;;;-3.50;88.80;;;;;;5073456;28;20016;-85
2021/03/07 01:17:54;;;;;;;15.85;8.90;;;-3.50;88.80;;;;;;5089485;28;20021;-84
2021/03/07 01:20:20;;;;;;;18.98;9.85;;;-3.50;88.90;;;;;;5089062;28;20051;-85
2021/03/07 01:22:46;;;;;;;23.02;11.20;;;-3.50;88.90;;;;;;5072512;28;20052;-85
2021/03/07 01:25:12;;;;;;;21.30;10.82;;;-3.50;89.20;;;;;;5089076;28;20025;-85
2021/03/07 01:27:38;;;;;;;22.70;10.18;;;-3.60;89.10;;;;;;5073233;28;20025;-85
2021/03/07 01:30:08;;;;;;;18.42;8.95;;;-3.50;89.10;;;;;;5073312;28;20025;-84
2021/03/07 01:32:34;;;;;;;20.45;9.80;;;-3.50;89.20;;;;;;5073307;28;20046;-84
2021/03/07 01:35:00;;;;;;;16.00;9.35;;;-3.50;89.50;;;;;;5088854;28;20032;-85
2021/03/07 01:37:26;;;;;;;14.40;7.90;;;-3.50;89.30;;;;;;5074244;28;20020;-85
2021/03/07 01:39:53;;;;;;;18.52;9.45;;;-3.60;89.40;;;;;;5090383;28;20485;-84
2021/03/07 01:42:19;;;;;;;19.70;8.40;;;-3.60;90.20;;;;;;5090421;28;20104;-85
2021/03/07 01:44:45;;;;;;;20.67;8.57;;;-3.60;89.90;;;;;;5074907;28;20032;-84
2021/03/07 01:47:13;;;;;;;16.85;7.10;;;-3.70;89.80;;;;;;5090067;28;20025;-85
2021/03/07 01:49:39;;;;;;;16.75;7.80;;;-3.60;90.00;;;;;;5090658;28;20387;-85
2021/03/07 01:52:05;;;;;;;14.07;7.15;;;-3.70;89.60;;;;;;5090409;28;20032;-84
2021/03/07 01:54:31;;;;;;;11.73;7.10;;;-3.70;89.50;;;;;;5074593;28;20074;-85
2021/03/07 01:56:59;;;;;;;17.77;8.40;;;-3.70;90.00;;;;;;5074611;28;20042;-84
2021/03/07 01:59:27;;;;;;;13.23;6.90;;;-3.70;89.60;;;;;;5073121;28;20048;-85
2021/03/07 02:01:53;;;;;;;15.23;7.93;;;-3.70;89.60;;;;;;5090401;28;20055;-85
2021/03/07 02:04:19;;;;;;;15.90;8.65;;;-3.80;89.80;;;;;;5074225;28;20112;-85
2021/03/07 02:06:45;;;;;;;16.27;8.43;;;-3.80;89.70;;;;;;5090287;28;20032;-85
2021/03/07 02:09:11;;;;;;;13.98;8.27;;;-3.80;89.70;;;;;;5074356;28;20024;-85
2021/03/07 02:11:39;;;;;;;14.43;8.27;;;-3.90;90.20;;;;;;5090064;28;20361;-85
2021/03/07 02:14:07;;;;;;;13.73;7.93;;;-3.90;90.00;;;;;;5090108;28;20051;-85
2021/03/07 02:16:33;;;;;;;17.80;9.38;;;-3.90;90.00;;;;;;5074380;28;20058;-85
2021/03/07 02:19:00;;;;;;;15.57;8.88;;;-3.90;90.40;;;;;;5090301;28;20047;-84
2021/03/07 02:21:37;;;;;;;18.00;8.07;;;-4.00;90.80;;;;;;5089889;28;20089;-85
2021/03/07 02:24:08;;;;;;;14.07;7.43;;;-4.10;90.80;;;;;;5089971;28;20440;-85
2021/03/07 02:26:48;;;;;;;16.50;7.82;;;-4.00;90.40;;;;;;5074400;28;20070;-85
2021/03/07 02:29:17;;;;;;;13.63;7.80;;;-4.00;90.40;;;;;;5090145;28;20040;-85
2021/03/07 02:31:48;;;;;;;13.70;7.28;;;-4.00;90.60;;;;;;5074271;28;20261;-84
2021/03/07 02:34:21;;;;;;;15.52;8.27;;;-4.00;90.30;;;;;;5072960;28;20608;-85
2021/03/07 02:36:53;;;;;;;15.40;7.88;;;-3.90;90.20;;;;;;5088874;28;20025;-85
2021/03/07 02:39:23;;;;;;;12.07;7.38;;;-4.00;90.30;;;;;;5088167;28;20452;-85
2021/03/07 02:41:49;;;;;;;19.58;7.72;;;-4.00;90.10;;;;;;5072420;28;20028;-85
2021/03/07 02:44:17;;;;;;;15.15;7.97;;;-4.00;90.00;;;;;;5072146;28;20029;-85
2021/03/07 02:46:44;;;;;;;15.82;8.65;;;-4.00;90.00;;;;;;5072102;28;20021;-85
2021/03/07 02:49:14;;;;;;;16.13;8.75;;;-4.00;90.30;;;;;;5072302;28;20025;-85
2021/03/07 02:51:40;;;;;;;12.52;7.00;;;-4.10;90.60;;;;;;5087865;28;20032;-85
2021/03/07 02:54:09;;;;;;;13.73;7.55;;;-4.10;90.40;;;;;;5072260;28;20027;-85
2021/03/07 02:56:37;;;;;;;15.80;8.75;;;-4.10;90.20;;;;;;5073666;28;20124;-85
2021/03/07 02:59:10;;;;;;;16.13;9.05;;;-4.10;90.30;;;;;;5106202;28;20123;-85
2021/03/07 03:01:38;;;;;;;14.07;7.93;;;-4.10;90.30;;;;;;5087792;28;20028;-85
2021/03/07 03:04:05;;;;;;;14.68;8.40;;;-4.10;90.40;;;;;;5088006;28;20060;-85
2021/03/07 03:06:33;;;;;;;14.25;7.90;;;-4.10;90.10;;;;;;5087927;28;20048;-85
2021/03/07 03:09:03;;;;;;;19.92;8.75;;;-4.10;90.00;;;;;;5072138;28;20107;-85
2021/03/07 03:11:35;;;;;;;17.38;8.10;;;-4.10;90.00;;;;;;5088090;28;20033;-84
2021/03/07 03:14:01;;;;;;;16.25;7.72;;;-4.20;90.20;;;;;;5075427;28;20445;-85
2021/03/07 03:16:31;;;;;;;13.55;7.15;;;-4.20;90.10;;;;;;5075988;28;20028;-85
2021/03/07 03:18:59;;;;;;;13.68;7.95;;;-4.20;90.20;;;;;;5074654;28;20017;-85
2021/03/07 03:21:26;;;;;;;12.43;7.10;;;-4.20;90.10;;;;;;5075939;28;20363;-85
2021/03/07 03:23:52;;;;;;;13.48;7.25;;;-4.30;90.00;;;;;;5075454;28;20020;-85
2021/03/07 03:26:19;;;;;;;15.35;7.80;;;-4.20;90.00;;;;;;5091354;28;20021;-84
2021/03/07 03:28:47;;;;;;;10.38;6.35;;;-4.20;90.00;;;;;;5091016;28;20029;-85
2021/03/07 03:31:13;;;;;;;14.43;7.93;;;-4.30;90.00;;;;;;5075806;28;20020;-84
2021/03/07 03:33:39;;;;;;;14.60;8.43;;;-4.30;90.30;;;;;;5075237;28;20020;-85
2021/03/07 03:36:05;;;;;;;17.85;8.38;;;-4.30;90.20;;;;;;5091797;28;20036;-85
2021/03/07 03:38:38;;;;;;;13.02;7.38;;;-4.40;90.40;;;;;;5076093;28;20085;-85
2021/03/07 03:41:04;;;;;;;15.45;8.80;;;-4.30;90.20;;;;;;5076979;28;20093;-85
2021/03/07 03:43:30;;;;;;;14.65;8.23;;;-4.40;90.30;;;;;;5077161;28;20020;-85
2021/03/07 03:46:00;;;;;;;20.42;10.98;;;-4.30;90.10;;;;;;5075863;28;20031;-85
2021/03/07 03:48:31;;;;;;;16.00;8.68;;;-4.40;90.30;;;;;;5092905;28;20056;-85
2021/03/07 03:50:57;;;;;;;;;;;-4.40;90.50;;;;;;5093066;28;20031;-85
2021/03/07 03:53:24;;;;;;;13.15;7.82;;;-4.40;90.70;;;;;;5076010;28;20278;-85
2021/03/07 03:55:53;;;;;;;15.52;9.00;;;-4.40;90.50;;;;;;5075837;28;20107;-85
2021/03/07 03:58:26;;;;;;;13.18;7.80;;;-4.40;90.60;;;;;;5092569;28;20103;-85
2021/03/07 04:00:54;;;;;;;19.92;10.30;;;-4.50;90.70;;;;;;5092480;28;20107;-85
2021/03/07 04:03:22;;;;;;;14.48;8.02;;;-4.50;90.90;;;;;;5076785;28;20029;-85
2021/03/07 04:05:50;;;;;;;17.92;9.00;;;-4.50;90.70;;;;;;5092611;28;20029;-85
2021/03/07 04:08:17;;;;;;;16.10;8.68;;;-4.50;90.40;;;;;;5076696;28;20032;-85
2021/03/07 04:10:44;;;;;;;15.80;8.13;;;-4.40;90.40;;;;;;5092314;28;20024;-85
2021/03/07 04:13:15;;;;;;;16.75;8.80;;;-4.40;90.10;;;;;;5076361;28;20521;-85
2021/03/07 04:15:42;;;;;;;16.25;7.95;;;-4.40;90.10;;;;;;5076617;28;20047;-85
2021/03/07 04:18:12;;;;;;;14.43;7.97;;;-4.40;90.10;;;;;;5092023;28;20031;-85
2021/03/07 04:20:38;;;;;;;14.55;7.88;;;-4.40;90.00;;;;;;5092241;28;20023;-85
2021/03/07 04:23:04;;;;;;;14.18;8.80;;;-4.40;90.00;;;;;;5074641;28;20067;-85
2021/03/07 04:25:30;;;;;;;18.40;9.73;;;-4.40;89.90;;;;;;5091894;28;20021;-86
2021/03/07 04:27:56;;;;;;;16.88;8.95;;;-4.40;90.00;;;;;;5091699;28;20052;-86
2021/03/07 04:30:22;;;;;;;16.25;9.40;;;-4.40;90.10;;;;;;5076181;28;20114;-86
2021/03/07 04:32:50;;;;;;;17.52;10.18;;;-4.40;90.10;;;;;;5075959;28;20025;-86
2021/03/07 04:35:16;;;;;;;17.20;9.02;;;-4.50;90.20;;;;;;5091399;28;20378;-86
2021/03/07 04:37:42;;;;;;;16.25;8.63;;;-4.50;90.10;;;;;;5074171;28;20119;-85
2021/03/07 04:40:08;;;;;;;16.30;8.68;;;-4.50;90.00;;;;;;5074180;28;20514;-85
2021/03/07 04:42:35;;;;;;;16.67;9.10;;;-4.50;90.00;;;;;;5074037;28;20027;-85
2021/03/07 04:45:04;;;;;;;16.55;8.73;;;-4.50;90.10;;;;;;5089761;28;20074;-85
2021/03/07 04:47:30;;;;;;;17.45;8.48;;;-4.50;90.30;;;;;;5104332;28;20036;-85
2021/03/07 04:49:56;;;;;;;17.70;8.95;;;-4.50;90.10;;;;;;5079551;28;20024;-85
2021/03/07 04:52:22;;;;;;;13.82;7.78;;;-4.50;90.30;;;;;;5089962;28;20032;-85
2021/03/07 04:54:47;;;;;;;14.88;8.40;;;-4.50;90.30;;;;;;5073733;28;20060;-85
2021/03/07 04:57:13;;;;;;;14.05;8.02;;;-4.50;90.40;;;;;;5072926;28;20054;-85
2021/03/07 04:59:39;;;;;;;13.32;8.20;;;-4.50;90.50;;;;;;5073570;28;20028;-85
2021/03/07 05:02:05;;;;;;;14.02;8.35;;;-4.40;90.30;;;;;;5073824;28;20103;-85
2021/03/07 05:04:31;;;;;;;15.50;9.02;;;-4.40;90.10;;;;;;5089814;28;20409;-85
2021/03/07 05:07:01;;;;;;;18.92;9.93;;;-4.30;90.10;;;;;;5073658;28;20035;-85
2021/03/07 05:09:26;;;;;;;15.75;8.88;;;-4.40;90.40;;;;;;5089452;28;20024;-86
2021/03/07 05:11:52;;;;;;;17.48;8.90;;;-4.40;90.50;;;;;;5073330;28;20119;-85
2021/03/07 05:14:18;;;;;;;22.27;10.98;;;-4.30;90.30;;;;;;5089107;28;20474;-85
2021/03/07 05:16:44;;;;;;;17.98;9.20;;;-4.30;90.40;;;;;;5073519;28;20024;-85
2021/03/07 05:19:09;;;;;;;17.83;8.60;;;-4.30;90.30;;;;;;5072424;28;20031;-88
2021/03/07 05:21:35;;;;;;;18.75;9.15;;;-4.20;90.20;;;;;;5073158;28;20107;-86
2021/03/07 05:24:02;;;;;;;19.08;10.43;;;-4.10;90.00;;;;;;5089245;28;20055;-86
2021/03/07 05:26:29;;;;;;;15.02;8.85;;;-4.10;90.00;;;;;;5072410;28;20036;-86
2021/03/07 05:28:55;;;;;;;17.88;8.95;;;-4.10;89.60;;;;;;5089040;28;20056;-86
2021/03/07 05:31:21;;;;;;;16.45;8.38;;;-3.90;89.40;;;;;;5073364;28;20071;-85
2021/03/07 05:33:47;;;;;;;14.68;8.68;;;-3.90;88.80;;;;;;5089200;28;20402;-85
2021/03/07 05:36:13;;;;;;;16.77;8.73;;;-3.90;88.50;;;;;;5088894;28;20025;-86
2021/03/07 05:38:39;;;;;;;17.60;8.82;;;-3.90;88.30;;;;;;5073942;28;20052;-85
2021/03/07 05:41:05;;;;;;;18.33;10.38;;;-3.80;88.20;;;;;;5090917;28;20032;-87
2021/03/07 05:43:31;;;;;;;17.48;9.15;;;-3.80;88.20;;;;;;5090871;28;20471;-87
2021/03/07 05:45:57;;;;;;;14.50;8.10;;;-3.80;88.30;;;;;;5090692;28;20036;-85
2021/03/07 05:48:27;;;;;;;15.65;8.90;;;-3.80;88.20;;;;;;5090888;28;20039;-86
2021/03/07 05:50:52;;;;;;;15.65;8.75;;;-3.70;88.10;;;;;;5090577;28;20028;-86
2021/03/07 05:53:19;;;;;;;19.08;9.65;;;-3.60;89.00;;;;;;5074750;28;20039;-88
2021/03/07 05:55:46;;;;;;;22.13;9.88;;;-3.60;88.20;;;;;;5074490;28;20032;-87
2021/03/07 05:58:14;;;;;;;19.80;10.20;;;-3.50;87.90;;;;;;5090327;28;20429;-87
2021/03/07 06:00:40;;;;;;;17.05;9.63;;;-3.40;87.70;;;;;;5074799;28;20032;-87
2021/03/07 06:03:06;;;;;;;16.88;8.95;;;-3.30;87.30;;;;;;5092586;28;20343;-87
2021/03/07 06:05:34;;;;;;;17.33;9.10;;;-3.20;87.10;;;;;;5074638;28;20024;-87
2021/03/07 06:07:59;;;;;;;14.10;8.27;;;-3.10;86.90;;;;;;5090621;28;20039;-87
2021/03/07 06:10:27;;;;;;;14.30;8.93;;;-3.00;86.70;;;;;;5073537;28;20466;-87
2021/03/07 06:13:12;;;;;;;15.90;9.05;;;-2.90;86.00;;;;;;5074248;28;20068;-87
2021/03/07 06:15:39;;;;;;;16.30;9.68;;;-2.80;86.00;;;;;;5090253;28;20081;-87
2021/03/07 06:18:12;;;;;;;20.23;10.85;;;-2.70;85.40;;;;;;5074409;28;20108;-87
2021/03/07 06:20:38;;;;;;;29.55;14.10;;;-2.60;85.30;;;;;;5074694;28;20020;-87
2021/03/07 06:23:03;;;;;;;31.52;15.35;;;-2.60;85.10;;;;;;5085116;28;20036;-87
2021/03/07 06:25:30;;;;;;;21.63;11.20;;;-2.50;84.40;;;;;;5089805;28;20030;-87
2021/03/07 06:27:57;;;;;;;22.58;12.05;;;-2.40;84.10;;;;;;5072895;28;20112;-86
2021/03/07 06:30:25;;;;;;;24.42;11.63;;;-2.40;83.10;;;;;;5074021;28;20113;-87
2021/03/07 06:32:59;;;;;;;23.08;11.20;;;-2.30;83.30;;;;;;5089830;28;20032;-87
2021/03/07 06:35:30;;;;;;;27.85;11.82;;;-2.20;83.70;;;;;;5073766;28;20032;-86
2021/03/07 06:37:57;;;;;;;24.38;11.70;;;-2.10;83.10;;;;;;5105778;28;20013;-87
2021/03/07 06:40:39;;;;;;;22.77;11.15;;;-2.10;82.80;;;;;;5079118;28;20028;-86
2021/03/07 06:43:18;;;;;;;20.05;10.10;;;-2.00;83.20;;;;;;5086449;28;20549;-86
2021/03/07 06:45:44;;;;;;;19.80;10.50;;;-1.90;82.80;;;;;;5087468;28;20028;-87
2021/03/07 06:48:11;;;;;;;18.73;9.80;;;-1.80;82.90;;;;;;5075561;28;20055;-87
2021/03/07 06:50:52;;;;;;;18.02;9.68;;;-1.80;82.70;;;;;;5075306;28;20032;-87
2021/03/07 06:53:37;;;;;;;19.75;9.57;;;-1.60;82.80;;;;;;5091067;28;20035;-87
2021/03/07 06:56:04;;;;;;;20.23;9.38;;;-1.60;82.60;;;;;;5091377;28;20477;-87
2021/03/07 06:58:30;;;;;;;16.08;9.55;;;-1.50;81.10;;;;;;5090575;28;20475;-87
2021/03/07 07:00:56;;;;;;;21.70;10.73;;;-1.50;81.30;;;;;;5074428;28;20025;-87
2021/03/07 07:03:22;;;;;;;14.38;9.57;;;-1.50;80.60;;;;;;5075365;28;20100;-87
2021/03/07 07:05:50;;;;;;;19.08;9.55;;;-1.50;80.70;;;;;;5075077;28;20078;-87
2021/03/07 07:08:19;;;;;;;17.70;9.48;;;-1.40;80.70;;;;;;5074971;28;20428;-87
2021/03/07 07:11:03;;;;;;;16.08;9.57;;;-1.40;80.50;;;;;;5090957;28;20031;-87
2021/03/07 07:13:30;;;;;;;18.77;9.07;;;-1.30;80.90;;;;;;5090357;28;20059;-87
2021/03/07 07:16:04;;;;;;;20.70;9.52;;;-1.20;81.00;;;;;;5090783;28;20031;-88
2021/03/07 07:18:36;;;;;;;22.98;11.40;;;-1.00;80.50;;;;;;5074853;28;20095;-88
2021/03/07 07:21:22;;;;;;;19.60;10.80;;;-1.00;79.90;;;;;;5090875;28;20437;-87
2021/03/07 07:23:48;;;;;;;17.52;9.75;;;-0.90;79.20;;;;;;5073338;28;20041;-88
2021/03/07 07:26:14;;;;;;;19.27;11.23;;;-0.80;79.60;;;;;;5074755;28;20031;-88
2021/03/07 07:28:40;;;;;;;18.55;9.93;;;-0.70;79.50;;;;;;5090307;28;20375;-88
2021/03/07 07:31:30;;;;;;;23.00;10.68;;;-0.60;79.80;;;;;;5073505;28;20032;-86
2021/03/07 07:34:16;;;;;;;20.25;10.45;;;-0.50;79.30;;;;;;5090420;28;20428;-86
2021/03/07 07:36:54;;;;;;;20.25;12.13;;;-0.40;78.70;;;;;;5091136;28;20044;-87
2021/03/07 07:39:35;;;;;;;20.58;11.95;;;-0.40;79.10;;;;;;5076284;28;20024;-88
2021/03/07 07:42:21;;;;;;;22.85;11.45;;;-0.30;78.90;;;;;;5075982;28;20082;-89
2021/03/07 07:44:47;;;;;;;24.65;12.48;;;-0.30;78.20;;;;;;5092023;28;20031;-89
2021/03/07 07:47:14;;;;;;;22.98;11.75;;;-0.30;78.40;;;;;;5074808;28;20123;-88
2021/03/07 07:49:41;;;;;;;24.38;12.93;;;-0.20;79.40;;;;;;5091807;28;20116;-89
2021/03/07 07:52:24;;;;;;;16.83;10.77;;;-0.20;79.00;;;;;;5074715;28;20027;-87
2021/03/07 07:54:59;;;;;;;19.38;11.32;;;0.00;79.00;;;;;;5091566;28;20025;-89
2021/03/07 07:57:35;;;;;;;27.05;13.63;;;0.10;79.20;;;;;;5091788;28;20115;-88
2021/03/07 08:00:04;;;;;;;25.35;13.00;;;0.20;78.90;;;;;;5076992;28;20421;-88
2021/03/07 08:02:49;;;;;;;26.27;12.60;;;0.30;78.50;;;;;;5092624;28;20031;-88
2021/03/07 08:05:21;;;;;;;23.58;12.73;;;0.40;78.20;;;;;;5092472;28;20085;-88
2021/03/07 08:08:04;;;;;;;24.70;13.70;;;0.50;77.80;;;;;;5076670;28;20024;-88
2021/03/07 08:10:43;;;;;;;19.88;12.68;;;0.60;77.00;;;;;;5075601;28;20485;-87
2021/03/07 08:13:35;;;;;;;22.75;11.90;;;0.70;76.70;;;;;;5091874;28;20045;-87
2021/03/07 08:16:05;;;;;;;19.58;11.93;;;0.80;77.50;;;;;;5069104;28;20086;-86
2021/03/07 08:18:55;;;;;;;25.07;12.60;;;0.90;76.40;;;;;;5076581;28;20394;-90
2021/03/07 08:21:23;;;;;;;25.33;12.48;;;1.00;75.60;;;;;;5092631;28;20020;-89
2021/03/07 08:24:02;;;;;;;24.35;12.68;;;1.10;75.40;;;;;;5075263;28;20032;-89
2021/03/07 08:26:48;;;;;;;23.23;12.93;;;1.20;74.80;;;;;;5092331;28;20051;-89
2021/03/07 08:29:42;;;;;;;24.00;14.27;;;1.30;74.10;;;;;;5113934;28;20078;-89
2021/03/07 08:32:39;;;;;;;21.23;12.23;;;1.30;73.70;;;;;;5077378;28;20024;-89
2021/03/07 08:35:18;;;;;;;20.90;13.57;;;1.40;73.40;;;;;;5092000;28;20040;-89
2021/03/07 08:38:14;;;;;;;27.15;13.18;;;1.60;73.00;;;;;;5090393;28;20132;-89
2021/03/07 08:40:42;;;;;;;24.00;12.88;;;1.70;71.40;;;;;;5090491;28;20017;-89
2021/03/07 08:43:23;;;;;;;27.35;14.60;;;1.80;72.60;;;;;;5090347;28;20024;-89
2021/03/07 08:46:05;;;;;;;26.33;13.25;;;1.80;71.20;;;;;;5090165;28;20374;-89
2021/03/07 08:48:32;;;;;;;21.92;12.07;;;1.90;71.20;;;;;;5073121;28;20024;-89
2021/03/07 08:50:59;;;;;;;21.27;12.25;;;1.90;71.80;;;;;;5089542;28;20028;-89
2021/03/07 08:53:30;;;;;;;21.48;13.52;;;2.00;71.40;;;;;;5089989;28;20028;-89
2021/03/07 08:55:56;;;;;;;19.40;12.25;;;2.10;71.30;;;;;;5089724;28;20030;-87
2021/03/07 08:58:22;;;;;;;22.40;12.88;;;2.10;71.10;;;;;;5089976;28;20401;-88
2021/03/07 09:00:50;;;;;;;29.20;13.73;;;2.10;71.00;;;;;;5074118;28;20024;-88
2021/03/07 09:03:18;;;;;;;25.63;13.90;;;2.10;71.20;;;;;;5089887;28;20078;-88
2021/03/07 09:05:45;;;;;;;30.50;15.20;;;2.20;71.00;;;;;;5073802;28;20485;-87
2021/03/07 09:08:11;;;;;;;28.20;15.05;;;2.20;71.20;;;;;;5089615;28;20474;-88
2021/03/07 09:10:48;;;;;;;23.52;14.15;;;2.30;70.80;;;;;;5073890;28;20039;-88
2021/03/07 09:13:20;;;;;;;29.02;13.85;;;2.30;70.60;;;;;;5089057;28;20040;-88
2021/03/07 09:15:49;;;;;;;24.35;13.40;;;2.30;70.90;;;;;;5089462;28;20021;-87
2021/03/07 09:18:16;;;;;;;24.35;13.63;;;2.40;70.60;;;;;;5073550;28;20031;-86
2021/03/07 09:20:44;;;;;;;25.92;14.93;;;2.40;71.10;;;;;;5073568;28;20019;-87
2021/03/07 09:23:32;;;;;;;27.55;13.43;;;2.40;71.40;;;;;;5089464;28;20025;-87
2021/03/07 09:26:04;;;;;;;29.38;14.30;;;2.60;71.00;;;;;;5073440;28;20363;-87
2021/03/07 09:28:32;;;;;;;22.70;13.63;;;2.60;71.20;;;;;;5089203;28;20036;-87
2021/03/07 09:30:59;;;;;;;28.35;15.00;;;2.70;70.60;;;;;;5088911;28;20420;-88
2021/03/07 09:33:26;;;;;;;24.35;14.02;;;2.70;70.20;;;;;;5073213;28;20040;-87
2021/03/07 09:36:06;;;;;;;25.02;14.85;;;2.80;70.30;;;;;;5089016;28;20016;-88
2021/03/07 09:38:50;;;;;;;24.30;12.95;;;2.80;70.10;;;;;;5090764;28;20085;-87
2021/03/07 09:41:34;;;;;;;24.73;13.88;;;2.90;69.80;;;;;;5075031;28;20033;-87
2021/03/07 09:44:11;;;;;;;26.63;15.63;;;3.00;69.00;;;;;;5075063;28;20031;-86
2021/03/07 09:46:38;;;;;;;21.50;12.55;;;3.10;68.50;;;;;;5085946;28;20024;-86
2021/03/07 09:49:08;;;;;;;21.08;12.55;;;3.10;68.40;;;;;;5090428;28;20020;-87
2021/03/07 09:51:37;;;;;;;23.92;13.43;;;3.20;67.70;;;;;;5074498;28;20109;-84
2021/03/07 09:54:08;;;;;;;18.52;12.20;;;3.20;68.40;;;;;;5090216;28;20067;-84
2021/03/07 09:56:35;;;;;;;20.65;12.48;;;3.30;67.60;;;;;;5090376;28;20052;-85
2021/03/07 09:59:15;;;;;;;21.55;13.60;;;3.40;68.00;;;;;;5090291;28;20020;-85
2021/03/07 10:01:51;;;;;;;22.63;13.57;;;3.50;67.40;;;;;;5090413;28;20020;-87
2021/03/07 10:04:49;;;;;;;24.45;13.20;;;3.50;66.50;;;;;;5074247;28;20033;-84
2021/03/07 10:07:25;;;;;;;19.30;12.75;;;3.50;66.40;;;;;;5073436;28;20115;-84
2021/03/07 10:10:08;;;;;;;19.80;12.98;;;3.60;66.30;;;;;;5090206;28;20467;-84
2021/03/07 10:12:56;;;;;;;21.50;13.68;;;3.70;66.30;;;;;;5073955;28;20459;-83
2021/03/07 10:15:38;;;;;;;20.45;12.02;;;3.70;66.00;;;;;;5073812;28;20074;-84
2021/03/07 10:18:17;;;;;;;20.75;12.20;;;3.70;64.70;;;;;;5098665;28;20024;-85
2021/03/07 10:20:45;;;;;;;18.65;12.27;;;3.80;65.30;;;;;;5097058;28;20025;-85
2021/03/07 10:23:12;;;;;;;19.92;13.07;;;3.80;64.40;;;;;;5089816;28;20098;-84
2021/03/07 10:25:40;;;;;;;21.88;13.98;;;3.80;65.20;;;;;;5089829;28;20550;-85
2021/03/07 10:28:12;;;;;;;24.83;13.10;;;3.80;65.20;;;;;;5089829;28;20029;-84
2021/03/07 10:30:43;;;;;;;22.52;13.02;;;3.90;65.20;;;;;;5089914;28;20043;-83
2021/03/07 10:33:19;;;;;;;19.05;10.80;;;4.00;64.70;;;;;;5074132;28;20024;-86
2021/03/07 10:36:04;;;;;;;21.10;12.68;;;4.20;65.40;;;;;;5089707;28;20105;-85
2021/03/07 10:38:31;;;;;;;20.10;12.95;;;4.20;63.80;;;;;;5072184;28;20028;-84
2021/03/07 10:40:58;;;;;;;21.83;12.95;;;4.30;64.50;;;;;;5087696;28;20381;-84
2021/03/07 10:43:24;;;;;;;20.13;12.35;;;4.30;64.00;;;;;;5087793;28;20017;-84
2021/03/07 10:45:50;;;;;;;19.38;11.50;;;4.30;64.80;;;;;;5071793;28;20382;-83
2021/03/07 10:48:16;;;;;;;16.55;10.30;;;4.20;62.80;;;;;;5087776;28;20028;-84
2021/03/07 10:50:43;;;;;;;17.08;11.18;;;4.20;63.80;;;;;;5087494;28;20029;-83
2021/03/07 10:53:09;;;;;;;16.10;10.73;;;4.20;64.10;;;;;;5087440;28;20504;-84
2021/03/07 10:55:35;;;;;;;17.70;10.20;;;4.10;64.20;;;;;;5071862;28;20032;-83
2021/03/07 10:58:01;;;;;;;17.08;10.20;;;4.10;63.30;;;;;;5071909;28;20082;-84
2021/03/07 11:00:27;;;;;;;15.98;10.45;;;4.00;63.80;;;;;;5072296;28;20131;-84
2021/03/07 11:02:53;;;;;;;15.80;10.40;;;4.00;64.10;;;;;;5071969;28;20017;-84
2021/03/07 11:05:19;;;;;;;17.48;10.35;;;4.00;63.50;;;;;;5087491;28;20036;-84
2021/03/07 11:07:45;;;;;;;19.17;10.20;;;3.90;63.70;;;;;;5071633;28;20099;-83
2021/03/07 11:10:14;;;;;;;17.52;10.90;;;3.90;64.10;;;;;;5071825;28;20104;-83
2021/03/07 11:12:40;;;;;;;20.88;10.93;;;4.00;64.80;;;;;;5087302;28;20049;-84
2021/03/07 11:15:09;;;;;;;15.15;9.52;;;4.00;64.40;;;;;;5071921;28;20429;-85
2021/03/07 11:17:35;;;;;;;17.90;10.30;;;4.10;64.30;;;;;;5071445;28;20025;-85
2021/03/07 11:20:02;;;;;;;18.60;12.02;;;4.00;64.30;;;;;;5071852;28;20489;-85
2021/03/07 11:22:28;;;;;;;19.25;12.32;;;4.00;64.20;;;;;;5070828;28;20032;-86
2021/03/07 11:24:55;;;;;;;16.25;11.02;;;4.00;64.10;;;;;;5071888;28;20112;-85
2021/03/07 11:27:20;;;;;;;20.02;11.38;;;4.00;64.80;;;;;;5072021;28;20024;-85
2021/03/07 11:29:46;;;;;;;24.58;12.70;;;4.00;64.90;;;;;;5071564;28;20032;-84
2021/03/07 11:32:12;;;;;;;16.30;10.60;;;4.00;63.70;;;;;;5087407;28;20439;-85
2021/03/07 11:34:37;;;;;;;14.32;10.50;;;3.90;64.00;;;;;;5090524;28;20101;-82
2021/03/07 11:37:04;;;;;;;14.63;10.75;;;3.70;64.40;;;;;;5092059;28;20048;-84
2021/03/07 11:39:30;;;;;;;12.45;9.48;;;3.60;64.50;;;;;;5076655;28;20493;-83
2021/03/07 11:41:57;;;;;;;14.75;10.13;;;3.60;64.70;;;;;;5092466;28;20020;-84
2021/03/07 11:44:23;;;;;;;19.25;12.65;;;3.50;65.30;;;;;;5092467;28;20035;-84
2021/03/07 11:46:53;;;;;;;15.38;10.25;;;3.50;65.80;;;;;;5075714;28;20028;-85
2021/03/07 11:49:22;;;;;;;14.98;9.73;;;3.50;65.70;;;;;;5092547;28;20355;-83
2021/03/07 11:51:47;;;;;;;19.58;10.48;;;3.60;65.80;;;;;;5077003;28;20463;-85
2021/03/07 11:54:14;;;;;;;16.60;11.98;;;3.60;65.40;;;;;;5076880;28;20032;-84
2021/03/07 11:56:40;;;;;;;17.77;11.13;;;3.50;65.70;;;;;;5092285;28;20027;-86
2021/03/07 11:59:06;;;;;;;16.58;10.90;;;3.60;65.90;;;;;;5075840;28;20024;-92
2021/03/07 12:01:32;;;;;;;18.85;11.40;;;3.60;66.50;;;;;;5092641;28;20485;-90
2021/03/07 12:03:59;;;;;;;19.92;11.93;;;3.60;66.50;;;;;;5077104;28;20028;-91
2021/03/07 12:06:25;;;;;;;18.60;11.35;;;3.70;66.60;;;;;;5092566;28;20059;-91
2021/03/07 12:08:51;;;;;;;18.08;11.27;;;3.70;65.30;;;;;;5093219;28;20044;-91
2021/03/07 12:11:18;;;;;;;17.65;11.25;;;3.60;65.70;;;;;;5087323;28;20036;-91
2021/03/07 12:13:45;;;;;;;20.83;12.18;;;3.60;66.30;;;;;;5076836;28;20052;-92
2021/03/07 12:16:10;;;;;;;24.27;13.18;;;3.60;66.10;;;;;;5075548;28;20402;-91
2021/03/07 12:18:37;;;;;;;21.30;9.85;;;3.60;66.10;;;;;;5091715;28;20025;-93
2021/03/07 12:21:07;;;;;;;19.02;11.68;;;3.60;65.90;;;;;;5091358;28;20024;-92
2021/03/07 12:23:33;;;;;;;24.05;13.25;;;3.60;65.30;;;;;;5075349;28;20446;-92
2021/03/07 12:25:59;;;;;;;15.95;10.65;;;3.60;65.40;;;;;;5091582;28;20074;-92
2021/03/07 12:28:24;;;;;;;19.45;11.65;;;3.60;65.60;;;;;;5093763;28;20024;-92
2021/03/07 12:30:51;;;;;;;18.77;11.15;;;3.50;66.10;;;;;;5075214;28;20029;-92
2021/03/07 12:33:16;;;;;;;22.98;13.75;;;3.50;66.30;;;;;;5092119;28;20020;-92
2021/03/07 12:35:43;;;;;;;19.58;11.95;;;3.50;66.50;;;;;;5076531;28;20040;-92
2021/03/07 12:38:08;;;;;;;15.93;11.65;;;3.50;67.00;;;;;;5076009;28;20517;-91
2021/03/07 12:40:34;;;;;;;13.07;9.68;;;3.60;67.00;;;;;;5075740;28;20032;-92
2021/03/07 12:43:00;;;;;;;12.73;9.40;;;3.60;66.70;;;;;;5075486;28;20021;-92
2021/03/07 12:45:26;;;;;;;17.13;10.60;;;3.60;66.20;;;;;;5091055;28;20025;-92
2021/03/07 12:47:51;;;;;;;18.17;10.32;;;3.50;66.40;;;;;;5091317;28;20029;-90